sensor_id;sensor_type;location;lat;lon;timestamp;pressure;altitude;pressure_sealevel;temperature;humidity
41078;BME280;26823;42.662;23.352;2022-12-18T00:01:33;95503.28;;;7.08;93.28
41078;BME280;26823;42.662;23.352;2022-12-18T00:04:02;95509.50;;;7.08;91.96
41078;BME280;26823;42.662;23.352;2022-12-18T00:06:28;95506.13;;;7.01;90.50
41078;BME280;26823;42.662;23.352;2022-12-18T00:08:56;95506.94;;;7.01;91.05
41078;BME280;26823;42.662;23.352;2022-12-18T00:11:24;95513.06;;;6.97;90.23
41078;BME280;26823;42.662;23.352;2022-12-18T00:13:51;95510.38;;;6.85;90.21
41078;BME280;26823;42.662;23.352;2022-12-18T00:16:21;95506.44;;;6.76;89.62
41078;BME280;26823;42.662;23.352;2022-12-18T00:18:49;95522.78;;;6.86;90.08
41078;BME280;26823;42.662;23.352;2022-12-18T00:21:15;95517.41;;;6.86;89.50
41078;BME280;26823;42.662;23.352;2022-12-18T00:23:42;95531.13;;;6.73;90.64
41078;BME280;26823;42.662;23.352;2022-12-18T00:26:15;95526.44;;;6.68;90.90
41078;BME280;26823;42.662;23.352;2022-12-18T00:28:42;95529.94;;;6.68;90.93
41078;BME280;26823;42.662;23.352;2022-12-18T00:31:11;95536.84;;;6.64;90.90
41078;BME280;26823;42.662;23.352;2022-12-18T00:33:37;95534.19;;;6.52;90.04
41078;BME280;26823;42.662;23.352;2022-12-18T00:36:12;95534.38;;;6.51;91.10
41078;BME280;26823;42.662;23.352;2022-12-18T00:38:44;95535.22;;;6.51;90.16
41078;BME280;26823;42.662;23.352;2022-12-18T00:41:11;95543.19;;;6.46;90.70
41078;BME280;26823;42.662;23.352;2022-12-18T00:43:37;95542.00;;;6.42;91.39
41078;BME280;26823;42.662;23.352;2022-12-18T00:46:03;95501.81;;;6.12;91.20
41078;BME280;26823;42.662;23.352;2022-12-18T00:48:29;95550.88;;;6.43;91.19
41078;BME280;26823;42.662;23.352;2022-12-18T00:50:54;95532.31;;;6.41;90.78
41078;BME280;26823;42.662;23.352;2022-12-18T00:53:20;95543.19;;;6.46;91.75
41078;BME280;26823;42.662;23.352;2022-12-18T00:55:46;95554.84;;;6.52;90.92
41078;BME280;26823;42.662;23.352;2022-12-18T00:58:13;95553.44;;;6.49;89.74
41078;BME280;26823;42.662;23.352;2022-12-18T01:00:39;95535.91;;;6.23;89.89
41078;BME280;26823;42.662;23.352;2022-12-18T01:03:05;95555.19;;;6.32;90.31
41078;BME280;26823;42.662;23.352;2022-12-18T01:05:31;95559.41;;;6.40;89.96
41078;BME280;26823;42.662;23.352;2022-12-18T01:07:56;95572.25;;;6.38;89.35
41078;BME280;26823;42.662;23.352;2022-12-18T01:10:22;95562.69;;;6.42;91.13
41078;BME280;26823;42.662;23.352;2022-12-18T01:12:48;95563.25;;;6.32;89.08
41078;BME280;26823;42.662;23.352;2022-12-18T01:15:14;95571.56;;;6.30;89.48
41078;BME280;26823;42.662;23.352;2022-12-18T01:17:41;95582.06;;;6.20;89.26
41078;BME280;26823;42.662;23.352;2022-12-18T01:20:07;95575.53;;;6.16;90.70
41078;BME280;26823;42.662;23.352;2022-12-18T01:22:34;95583.47;;;6.11;89.62
41078;BME280;26823;42.662;23.352;2022-12-18T01:24:59;95580.06;;;6.03;89.89
41078;BME280;26823;42.662;23.352;2022-12-18T01:27:25;95538.91;;;5.91;89.55
41078;BME280;26823;42.662;23.352;2022-12-18T01:29:51;95580.97;;;6.09;88.98
41078;BME280;26823;42.662;23.352;2022-12-18T01:32:16;95582.25;;;6.07;88.45
41078;BME280;26823;42.662;23.352;2022-12-18T01:34:42;95582.63;;;6.10;89.22
41078;BME280;26823;42.662;23.352;2022-12-18T01:37:07;95583.22;;;6.00;87.85
41078;BME280;26823;42.662;23.352;2022-12-18T01:39:33;95589.28;;;6.08;88.86
41078;BME280;26823;42.662;23.352;2022-12-18T01:42:00;95548.19;;;6.07;89.26
41078;BME280;26823;42.662;23.352;2022-12-18T01:49:53;95584.31;;;5.93;89.18
41078;BME280;26823;42.662;23.352;2022-12-18T01:52:20;95593.50;;;5.85;89.24
41078;BME280;26823;42.662;23.352;2022-12-18T01:54:47;95602.06;;;5.94;89.83
41078;BME280;26823;42.662;23.352;2022-12-18T01:57:14;95577.50;;;5.78;87.91
41078;BME280;26823;42.662;23.352;2022-12-18T01:59:41;95586.09;;;5.57;88.29
41078;BME280;26823;42.662;23.352;2022-12-18T02:02:08;95600.44;;;5.62;90.07
41078;BME280;26823;42.662;23.352;2022-12-18T02:04:34;95589.94;;;5.61;88.43
41078;BME280;26823;42.662;23.352;2022-12-18T02:07:07;95596.84;;;5.68;89.18
41078;BME280;26823;42.662;23.352;2022-12-18T02:09:50;95602.56;;;5.60;88.75
41078;BME280;26823;42.662;23.352;2022-12-18T02:12:22;95616.34;;;5.64;88.67
41078;BME280;26823;42.662;23.352;2022-12-18T02:17:33;95618.66;;;5.60;88.61
41078;BME280;26823;42.662;23.352;2022-12-18T02:20:16;95621.22;;;5.55;89.43
41078;BME280;26823;42.662;23.352;2022-12-18T02:28:20;95625.09;;;5.41;89.79
41078;BME280;26823;42.662;23.352;2022-12-18T02:30:50;95627.88;;;5.34;89.55
41078;BME280;26823;42.662;23.352;2022-12-18T02:33:19;95618.44;;;5.43;89.39
41078;BME280;26823;42.662;23.352;2022-12-18T02:35:45;95633.41;;;5.51;89.37
41078;BME280;26823;42.662;23.352;2022-12-18T02:38:12;95636.19;;;5.44;89.13
41078;BME280;26823;42.662;23.352;2022-12-18T02:40:40;95627.50;;;5.30;88.95
41078;BME280;26823;42.662;23.352;2022-12-18T02:43:14;95637.78;;;5.33;89.62
41078;BME280;26823;42.662;23.352;2022-12-18T02:45:55;95638.13;;;5.37;90.05
41078;BME280;26823;42.662;23.352;2022-12-18T02:48:24;95645.13;;;5.38;89.24
41078;BME280;26823;42.662;23.352;2022-12-18T02:51:30;95643.06;;;5.21;88.81
41078;BME280;26823;42.662;23.352;2022-12-18T02:54:09;95638.88;;;4.88;90.04
41078;BME280;26823;42.662;23.352;2022-12-18T02:56:42;95625.78;;;4.99;90.55
41078;BME280;26823;42.662;23.352;2022-12-18T02:59:21;95646.56;;;5.03;89.91
41078;BME280;26823;42.662;23.352;2022-12-18T03:04:30;95651.63;;;5.12;89.78
41078;BME280;26823;42.662;23.352;2022-12-18T03:07:02;95651.06;;;5.10;89.68
41078;BME280;26823;42.662;23.352;2022-12-18T03:09:33;95646.69;;;4.71;90.41
41078;BME280;26823;42.662;23.352;2022-12-18T03:12:30;95651.19;;;4.96;90.76
41078;BME280;26823;42.662;23.352;2022-12-18T03:15:01;95658.34;;;5.02;90.03
41078;BME280;26823;42.662;23.352;2022-12-18T03:17:31;95657.53;;;5.02;89.63
41078;BME280;26823;42.662;23.352;2022-12-18T03:20:03;95639.66;;;4.96;90.22
41078;BME280;26823;42.662;23.352;2022-12-18T03:22:32;95646.13;;;4.88;90.30
41078;BME280;26823;42.662;23.352;2022-12-18T03:25:00;95662.88;;;4.83;90.06
41078;BME280;26823;42.662;23.352;2022-12-18T03:27:29;95671.94;;;4.82;91.15
41078;BME280;26823;42.662;23.352;2022-12-18T03:30:06;95678.53;;;4.86;91.03
41078;BME280;26823;42.662;23.352;2022-12-18T03:35:14;95677.06;;;4.84;89.98
41078;BME280;26823;42.662;23.352;2022-12-18T03:37:43;95682.63;;;4.89;90.09
41078;BME280;26823;42.662;23.352;2022-12-18T03:40:09;95678.63;;;4.73;89.49
41078;BME280;26823;42.662;23.352;2022-12-18T03:42:48;95698.28;;;4.67;90.70
41078;BME280;26823;42.662;23.352;2022-12-18T03:48:02;95694.41;;;4.81;90.04
41078;BME280;26823;42.662;23.352;2022-12-18T03:50:45;95702.31;;;4.76;89.39
41078;BME280;26823;42.662;23.352;2022-12-18T03:56:10;95667.59;;;4.37;88.69
41078;BME280;26823;42.662;23.352;2022-12-18T03:58:37;95722.78;;;4.70;89.23
41078;BME280;26823;42.662;23.352;2022-12-18T04:01:06;95711.44;;;4.68;89.00
41078;BME280;26823;42.662;23.352;2022-12-18T04:03:34;95699.53;;;4.64;88.93
41078;BME280;26823;42.662;23.352;2022-12-18T04:06:01;95699.47;;;4.71;88.18
41078;BME280;26823;42.662;23.352;2022-12-18T04:08:28;95699.03;;;4.74;88.35
41078;BME280;26823;42.662;23.352;2022-12-18T04:10:54;95714.59;;;4.84;88.01
41078;BME280;26823;42.662;23.352;2022-12-18T04:13:24;95726.94;;;4.92;87.99
41078;BME280;26823;42.662;23.352;2022-12-18T04:15:50;95729.06;;;4.83;88.04
41078;BME280;26823;42.662;23.352;2022-12-18T04:18:16;95727.03;;;4.78;87.73
41078;BME280;26823;42.662;23.352;2022-12-18T04:20:41;95739.72;;;4.64;88.74
41078;BME280;26823;42.662;23.352;2022-12-18T04:23:06;95716.25;;;4.34;88.77
41078;BME280;26823;42.662;23.352;2022-12-18T04:25:32;95737.81;;;4.46;89.05
41078;BME280;26823;42.662;23.352;2022-12-18T04:27:57;95743.78;;;4.73;88.35
41078;BME280;26823;42.662;23.352;2022-12-18T04:30:23;95744.16;;;5.02;87.40
41078;BME280;26823;42.662;23.352;2022-12-18T04:32:48;95727.13;;;4.90;86.21
41078;BME280;26823;42.662;23.352;2022-12-18T04:35:14;95730.59;;;4.72;86.22
41078;BME280;26823;42.662;23.352;2022-12-18T04:37:39;95737.75;;;4.78;86.11
41078;BME280;26823;42.662;23.352;2022-12-18T04:40:05;95757.47;;;4.90;86.14
41078;BME280;26823;42.662;23.352;2022-12-18T04:42:30;95757.31;;;4.85;84.97
41078;BME280;26823;42.662;23.352;2022-12-18T04:44:56;95770.91;;;4.84;85.52
41078;BME280;26823;42.662;23.352;2022-12-18T04:47:21;95763.78;;;4.71;85.58
41078;BME280;26823;42.662;23.352;2022-12-18T04:49:47;95774.72;;;4.69;85.33
41078;BME280;26823;42.662;23.352;2022-12-18T04:52:12;95768.44;;;4.57;86.08
41078;BME280;26823;42.662;23.352;2022-12-18T04:54:38;95778.19;;;4.77;85.15
41078;BME280;26823;42.662;23.352;2022-12-18T04:57:03;95783.66;;;5.14;85.11
41078;BME280;26823;42.662;23.352;2022-12-18T04:59:28;95790.72;;;5.08;81.76
41078;BME280;26823;42.662;23.352;2022-12-18T05:01:54;95790.38;;;4.98;82.47
41078;BME280;26823;42.662;23.352;2022-12-18T05:04:19;95787.53;;;4.93;82.44
41078;BME280;26823;42.662;23.352;2022-12-18T05:06:45;95787.75;;;4.91;81.13
41078;BME280;26823;42.662;23.352;2022-12-18T05:09:10;95772.81;;;4.51;82.56
41078;BME280;26823;42.662;23.352;2022-12-18T05:11:50;95796.44;;;4.61;82.45
41078;BME280;26823;42.662;23.352;2022-12-18T05:14:22;95790.88;;;4.63;82.66
41078;BME280;26823;42.662;23.352;2022-12-18T05:16:48;95766.53;;;4.32;81.96
41078;BME280;26823;42.662;23.352;2022-12-18T05:19:13;95796.91;;;4.51;81.95
41078;BME280;26823;42.662;23.352;2022-12-18T05:21:39;95803.31;;;4.50;82.77
41078;BME280;26823;42.662;23.352;2022-12-18T05:24:05;95814.31;;;4.35;83.19
41078;BME280;26823;42.662;23.352;2022-12-18T05:26:30;95825.13;;;4.15;83.83
41078;BME280;26823;42.662;23.352;2022-12-18T05:28:56;95812.22;;;3.99;84.29
41078;BME280;26823;42.662;23.352;2022-12-18T05:31:21;95820.44;;;4.11;84.53
41078;BME280;26823;42.662;23.352;2022-12-18T05:33:46;95831.25;;;4.29;83.78
41078;BME280;26823;42.662;23.352;2022-12-18T05:36:12;95850.56;;;4.38;82.49
41078;BME280;26823;42.662;23.352;2022-12-18T05:38:39;95848.50;;;4.40;82.00
41078;BME280;26823;42.662;23.352;2022-12-18T05:41:04;95832.72;;;4.25;82.68
41078;BME280;26823;42.662;23.352;2022-12-18T05:43:30;95838.81;;;4.39;82.68
41078;BME280;26823;42.662;23.352;2022-12-18T05:45:56;95847.00;;;4.51;81.97
41078;BME280;26823;42.662;23.352;2022-12-18T05:48:22;95841.03;;;4.49;83.24
41078;BME280;26823;42.662;23.352;2022-12-18T05:50:49;95847.22;;;4.49;81.56
41078;BME280;26823;42.662;23.352;2022-12-18T05:53:16;95841.63;;;4.57;81.07
41078;BME280;26823;42.662;23.352;2022-12-18T05:55:49;95845.66;;;4.35;81.42
41078;BME280;26823;42.662;23.352;2022-12-18T05:58:15;95845.88;;;4.27;80.74
41078;BME280;26823;42.662;23.352;2022-12-18T06:00:43;95853.50;;;4.30;80.81
41078;BME280;26823;42.662;23.352;2022-12-18T06:03:10;95852.66;;;4.36;81.15
41078;BME280;26823;42.662;23.352;2022-12-18T06:05:42;95858.97;;;4.48;80.92
41078;BME280;26823;42.662;23.352;2022-12-18T06:08:08;95857.88;;;4.63;80.92
41078;BME280;26823;42.662;23.352;2022-12-18T06:10:34;95866.38;;;4.85;80.74
41078;BME280;26823;42.662;23.352;2022-12-18T06:12:59;95859.84;;;4.74;79.92
41078;BME280;26823;42.662;23.352;2022-12-18T06:15:25;95858.22;;;4.73;79.00
41078;BME280;26823;42.662;23.352;2022-12-18T06:17:51;95869.91;;;4.47;78.09
41078;BME280;26823;42.662;23.352;2022-12-18T06:20:16;95858.97;;;4.03;80.48
41078;BME280;26823;42.662;23.352;2022-12-18T06:22:42;95873.56;;;4.07;83.16
41078;BME280;26823;42.662;23.352;2022-12-18T06:25:07;95879.78;;;3.87;82.53
41078;BME280;26823;42.662;23.352;2022-12-18T06:27:33;95879.59;;;3.82;82.02
41078;BME280;26823;42.662;23.352;2022-12-18T06:29:59;95882.28;;;3.82;82.46
41078;BME280;26823;42.662;23.352;2022-12-18T06:32:25;95884.81;;;3.64;84.01
41078;BME280;26823;42.662;23.352;2022-12-18T06:34:50;95886.63;;;3.77;83.57
41078;BME280;26823;42.662;23.352;2022-12-18T06:37:16;95873.84;;;3.79;83.24
41078;BME280;26823;42.662;23.352;2022-12-18T06:39:41;95893.00;;;3.82;83.49
41078;BME280;26823;42.662;23.352;2022-12-18T06:42:07;95893.84;;;3.83;82.93
41078;BME280;26823;42.662;23.352;2022-12-18T06:44:32;95895.44;;;3.84;83.06
41078;BME280;26823;42.662;23.352;2022-12-18T06:46:58;95896.09;;;3.79;82.12
41078;BME280;26823;42.662;23.352;2022-12-18T06:49:23;95892.63;;;3.65;83.11
41078;BME280;26823;42.662;23.352;2022-12-18T06:51:49;95895.28;;;3.72;83.29
41078;BME280;26823;42.662;23.352;2022-12-18T06:54:14;95903.09;;;3.73;83.05
41078;BME280;26823;42.662;23.352;2022-12-18T06:56:40;95920.00;;;3.74;81.72
41078;BME280;26823;42.662;23.352;2022-12-18T06:59:05;95914.00;;;3.72;81.99
41078;BME280;26823;42.662;23.352;2022-12-18T07:01:31;95910.72;;;3.77;81.95
41078;BME280;26823;42.662;23.352;2022-12-18T07:03:57;95916.06;;;3.70;81.57
41078;BME280;26823;42.662;23.352;2022-12-18T07:06:24;95918.94;;;3.68;81.22
41078;BME280;26823;42.662;23.352;2022-12-18T07:08:52;95920.84;;;3.61;81.11
41078;BME280;26823;42.662;23.352;2022-12-18T07:11:18;95937.28;;;3.65;80.64
41078;BME280;26823;42.662;23.352;2022-12-18T07:13:44;95922.44;;;3.62;80.65
41078;BME280;26823;42.662;23.352;2022-12-18T07:16:16;95923.69;;;3.59;80.44
41078;BME280;26823;42.662;23.352;2022-12-18T07:18:41;95891.22;;;3.42;81.21
41078;BME280;26823;42.662;23.352;2022-12-18T07:21:09;95906.84;;;3.59;81.41
41078;BME280;26823;42.662;23.352;2022-12-18T07:23:35;95935.00;;;3.82;80.60
41078;BME280;26823;42.662;23.352;2022-12-18T07:26:09;95944.03;;;3.87;80.89
41078;BME280;26823;42.662;23.352;2022-12-18T07:28:36;95913.38;;;3.70;80.18
41078;BME280;26823;42.662;23.352;2022-12-18T07:31:07;95939.31;;;3.89;80.82
41078;BME280;26823;42.662;23.352;2022-12-18T07:33:33;95939.31;;;3.89;81.82
41078;BME280;26823;42.662;23.352;2022-12-18T07:36:00;95949.16;;;4.02;80.78
41078;BME280;26823;42.662;23.352;2022-12-18T07:38:25;95907.00;;;3.71;80.46
41078;BME280;26823;42.662;23.352;2022-12-18T07:40:51;95937.63;;;3.95;80.31
41078;BME280;26823;42.662;23.352;2022-12-18T07:43:16;95943.00;;;3.95;80.29
41078;BME280;26823;42.662;23.352;2022-12-18T07:45:42;95927.34;;;3.92;79.56
41078;BME280;26823;42.662;23.352;2022-12-18T07:48:08;95967.69;;;4.04;80.50
41078;BME280;26823;42.662;23.352;2022-12-18T07:50:34;95955.34;;;3.96;80.71
41078;BME280;26823;42.662;23.352;2022-12-18T07:52:59;95961.09;;;4.06;81.13
41078;BME280;26823;42.662;23.352;2022-12-18T07:55:29;95959.66;;;4.04;80.00
41078;BME280;26823;42.662;23.352;2022-12-18T07:57:55;95961.53;;;3.90;80.26
41078;BME280;26823;42.662;23.352;2022-12-18T08:00:21;95948.16;;;3.90;80.75
41078;BME280;26823;42.662;23.352;2022-12-18T08:02:47;95980.47;;;4.08;80.82
41078;BME280;26823;42.662;23.352;2022-12-18T08:05:12;95943.25;;;3.80;80.31
41078;BME280;26823;42.662;23.352;2022-12-18T08:07:38;95993.03;;;4.01;80.01
41078;BME280;26823;42.662;23.352;2022-12-18T08:10:04;95981.53;;;3.94;79.84
41078;BME280;26823;42.662;23.352;2022-12-18T08:12:30;95991.59;;;3.92;79.32
41078;BME280;26823;42.662;23.352;2022-12-18T08:14:55;95996.97;;;3.92;79.81
41078;BME280;26823;42.662;23.352;2022-12-18T08:17:21;96005.00;;;3.92;80.59
41078;BME280;26823;42.662;23.352;2022-12-18T08:19:46;96009.09;;;3.95;81.16
41078;BME280;26823;42.662;23.352;2022-12-18T08:22:11;96011.38;;;3.91;81.53
41078;BME280;26823;42.662;23.352;2022-12-18T08:24:37;96005.63;;;3.81;82.31
41078;BME280;26823;42.662;23.352;2022-12-18T08:27:02;96010.53;;;3.97;82.03
41078;BME280;26823;42.662;23.352;2022-12-18T08:29:28;96025.41;;;3.86;80.56
41078;BME280;26823;42.662;23.352;2022-12-18T08:31:53;95988.75;;;3.60;80.18
41078;BME280;26823;42.662;23.352;2022-12-18T08:34:19;96022.69;;;3.80;80.37
41078;BME280;26823;42.662;23.352;2022-12-18T08:36:44;96026.00;;;3.82;79.52
41078;BME280;26823;42.662;23.352;2022-12-18T08:39:09;96025.38;;;3.80;80.06
41078;BME280;26823;42.662;23.352;2022-12-18T08:41:35;96017.78;;;3.77;80.09
41078;BME280;26823;42.662;23.352;2022-12-18T08:44:00;96029.09;;;3.85;79.84
41078;BME280;26823;42.662;23.352;2022-12-18T08:46:44;96012.63;;;3.75;78.79
41078;BME280;26823;42.662;23.352;2022-12-18T08:49:11;96038.97;;;3.85;78.86
41078;BME280;26823;42.662;23.352;2022-12-18T08:51:37;96038.34;;;3.89;78.58
41078;BME280;26823;42.662;23.352;2022-12-18T08:54:03;96040.22;;;3.96;78.99
41078;BME280;26823;42.662;23.352;2022-12-18T08:56:30;96042.88;;;3.89;78.38
41078;BME280;26823;42.662;23.352;2022-12-18T08:58:56;96029.09;;;3.85;77.34
41078;BME280;26823;42.662;23.352;2022-12-18T09:01:21;96039.56;;;3.94;78.76
41078;BME280;26823;42.662;23.352;2022-12-18T09:03:49;96030.09;;;3.91;78.34
41078;BME280;26823;42.662;23.352;2022-12-18T09:06:16;96026.19;;;3.94;77.41
41078;BME280;26823;42.662;23.352;2022-12-18T09:08:43;96033.81;;;3.90;77.28
41078;BME280;26823;42.662;23.352;2022-12-18T09:11:14;96026.19;;;3.87;76.34
41078;BME280;26823;42.662;23.352;2022-12-18T09:13:40;96034.03;;;3.88;76.52
41078;BME280;26823;42.662;23.352;2022-12-18T09:16:06;96007.06;;;3.83;76.64
41078;BME280;26823;42.662;23.352;2022-12-18T09:18:31;95987.50;;;3.69;76.81
41078;BME280;26823;42.662;23.352;2022-12-18T09:20:57;96021.47;;;3.96;77.41
41078;BME280;26823;42.662;23.352;2022-12-18T09:23:22;96016.91;;;3.96;76.51
41078;BME280;26823;42.662;23.352;2022-12-18T09:25:48;95999.00;;;4.10;76.18
41078;BME280;26823;42.662;23.352;2022-12-18T09:28:15;96011.16;;;4.19;75.14
41078;BME280;26823;42.662;23.352;2022-12-18T09:30:43;96035.19;;;4.39;74.82
41078;BME280;26823;42.662;23.352;2022-12-18T09:33:09;96033.75;;;4.44;74.44
41078;BME280;26823;42.662;23.352;2022-12-18T09:35:38;95942.00;;;3.83;74.01
41078;BME280;26823;42.662;23.352;2022-12-18T09:38:04;96019.34;;;4.31;73.93
41078;BME280;26823;42.662;23.352;2022-12-18T09:40:35;96032.16;;;4.16;74.87
41078;BME280;26823;42.662;23.352;2022-12-18T09:43:04;96036.88;;;4.27;73.91
41078;BME280;26823;42.662;23.352;2022-12-18T09:45:39;96021.59;;;4.41;73.50
41078;BME280;26823;42.662;23.352;2022-12-18T09:48:10;96024.88;;;4.50;73.04
41078;BME280;26823;42.662;23.352;2022-12-18T09:50:41;96030.44;;;4.55;72.30
41078;BME280;26823;42.662;23.352;2022-12-18T09:53:14;96029.59;;;4.61;71.73
41078;BME280;26823;42.662;23.352;2022-12-18T09:55:45;96023.13;;;4.76;72.25
41078;BME280;26823;42.662;23.352;2022-12-18T09:58:14;96024.91;;;5.02;71.08
41078;BME280;26823;42.662;23.352;2022-12-18T10:00:42;96012.44;;;4.69;71.05
41078;BME280;26823;42.662;23.352;2022-12-18T10:03:12;96037.06;;;4.98;71.14
41078;BME280;26823;42.662;23.352;2022-12-18T10:17:12;96033.69;;;5.16;67.75
41078;BME280;26823;42.662;23.352;2022-12-18T10:19:51;96021.81;;;4.98;67.86
41078;BME280;26823;42.662;23.352;2022-12-18T10:25:02;96036.59;;;5.07;69.61
41078;BME280;26823;42.662;23.352;2022-12-18T10:27:29;96030.25;;;5.02;67.84
41078;BME280;26823;42.662;23.352;2022-12-18T10:29:56;96031.31;;;4.94;67.23
41078;BME280;26823;42.662;23.352;2022-12-18T10:32:27;96014.47;;;4.73;68.52
41078;BME280;26823;42.662;23.352;2022-12-18T10:34:55;96035.06;;;4.80;68.49
41078;BME280;26823;42.662;23.352;2022-12-18T10:37:27;96016.13;;;4.74;68.92
41078;BME280;26823;42.662;23.352;2022-12-18T10:42:33;96020.78;;;4.99;68.97
41078;BME280;26823;42.662;23.352;2022-12-18T10:45:09;96034.09;;;5.13;68.56
41078;BME280;26823;42.662;23.352;2022-12-18T10:47:35;96033.22;;;5.26;68.46
41078;BME280;26823;42.662;23.352;2022-12-18T10:50:00;96015.50;;;5.18;67.63
41078;BME280;26823;42.662;23.352;2022-12-18T10:52:27;96006.88;;;5.09;68.24
41078;BME280;26823;42.662;23.352;2022-12-18T10:54:55;96020.28;;;5.16;68.78
41078;BME280;26823;42.662;23.352;2022-12-18T10:59:55;95997.81;;;5.10;69.13
41078;BME280;26823;42.662;23.352;2022-12-18T11:02:34;96019.59;;;5.27;68.03
41078;BME280;26823;42.662;23.352;2022-12-18T11:05:00;96030.75;;;5.24;67.74
41078;BME280;26823;42.662;23.352;2022-12-18T11:07:47;96012.75;;;4.93;68.20
41078;BME280;26823;42.662;23.352;2022-12-18T11:10:17;95983.91;;;4.88;68.66
41078;BME280;26823;42.662;23.352;2022-12-18T11:12:43;96028.47;;;5.28;67.39
41078;BME280;26823;42.662;23.352;2022-12-18T11:15:20;96027.88;;;5.19;66.17
41078;BME280;26823;42.662;23.352;2022-12-18T11:17:54;96024.38;;;4.73;67.65
41078;BME280;26823;42.662;23.352;2022-12-18T11:20:28;96023.09;;;4.82;67.02
41078;BME280;26823;42.662;23.352;2022-12-18T11:23:03;96028.66;;;4.87;67.79
41078;BME280;26823;42.662;23.352;2022-12-18T11:25:30;96035.25;;;4.92;66.87
41078;BME280;26823;42.662;23.352;2022-12-18T11:27:58;96028.38;;;5.02;66.00
41078;BME280;26823;42.662;23.352;2022-12-18T11:30:28;96031.91;;;4.96;65.83
41078;BME280;26823;42.662;23.352;2022-12-18T11:33:06;96027.22;;;4.85;64.67
41078;BME280;26823;42.662;23.352;2022-12-18T11:38:22;96028.06;;;4.79;65.93
41078;BME280;26823;42.662;23.352;2022-12-18T11:40:55;96018.19;;;5.25;72.33
41078;BME280;26823;42.662;23.352;2022-12-18T11:43:41;96018.81;;;5.20;65.12
41078;BME280;26823;42.662;23.352;2022-12-18T11:46:25;96032.94;;;4.95;65.29
41078;BME280;26823;42.662;23.352;2022-12-18T11:49:01;96040.22;;;4.88;66.14
41078;BME280;26823;42.662;23.352;2022-12-18T11:51:34;96036.75;;;4.67;66.31
41078;BME280;26823;42.662;23.352;2022-12-18T11:54:01;96045.78;;;4.80;66.44
41078;BME280;26823;42.662;23.352;2022-12-18T11:56:35;96031.03;;;4.57;68.25
41078;BME280;26823;42.662;23.352;2022-12-18T12:00:09;96034.09;;;4.74;67.72
41078;BME280;26823;42.662;23.352;2022-12-18T12:08:05;96032.19;;;4.81;67.30
41078;BME280;26823;42.662;23.352;2022-12-18T12:13:38;96036.81;;;5.06;66.07
41078;BME280;26823;42.662;23.352;2022-12-18T12:21:05;96029.16;;;4.64;67.46
41078;BME280;26823;42.662;23.352;2022-12-18T12:23:45;96037.03;;;4.52;67.50
41078;BME280;26823;42.662;23.352;2022-12-18T12:29:46;96034.25;;;4.79;67.50
41078;BME280;26823;42.662;23.352;2022-12-18T12:40:39;96038.22;;;4.63;68.01
41078;BME280;26823;42.662;23.352;2022-12-18T12:43:54;96038.59;;;4.73;68.60
41078;BME280;26823;42.662;23.352;2022-12-18T12:46:16;96036.13;;;4.72;66.94
41078;BME280;26823;42.662;23.352;2022-12-18T12:48:43;96037.53;;;4.81;67.61
41078;BME280;26823;42.662;23.352;2022-12-18T12:51:16;96039.41;;;4.81;68.28
41078;BME280;26823;42.662;23.352;2022-12-18T12:53:42;96043.78;;;4.75;68.29
41078;BME280;26823;42.662;23.352;2022-12-18T12:56:10;96055.88;;;4.91;68.92
41078;BME280;26823;42.662;23.352;2022-12-18T12:58:45;96036.31;;;4.77;67.64
41078;BME280;26823;42.662;23.352;2022-12-18T13:01:25;96056.13;;;4.83;68.06
41078;BME280;26823;42.662;23.352;2022-12-18T13:09:14;96040.72;;;4.58;67.75
41078;BME280;26823;42.662;23.352;2022-12-18T13:11:42;96071.59;;;4.67;68.36
41078;BME280;26823;42.662;23.352;2022-12-18T13:14:38;96075.97;;;4.55;68.82
41078;BME280;26823;42.662;23.352;2022-12-18T13:19:49;96078.06;;;4.39;69.83
41078;BME280;26823;42.662;23.352;2022-12-18T13:22:35;96072.28;;;4.49;69.04
41078;BME280;26823;42.662;23.352;2022-12-18T13:25:03;96074.75;;;4.44;68.33
41078;BME280;26823;42.662;23.352;2022-12-18T13:30:57;96087.94;;;4.52;68.39
41078;BME280;26823;42.662;23.352;2022-12-18T13:43:29;96091.84;;;4.56;69.02
41078;BME280;26823;42.662;23.352;2022-12-18T13:46:29;96089.78;;;4.52;68.67
41078;BME280;26823;42.662;23.352;2022-12-18T13:49:15;96095.16;;;4.45;68.88
41078;BME280;26823;42.662;23.352;2022-12-18T13:51:47;96083.22;;;4.34;68.15
41078;BME280;26823;42.662;23.352;2022-12-18T13:56:57;96098.25;;;4.35;69.10
41078;BME280;26823;42.662;23.352;2022-12-18T13:59:39;96093.72;;;4.29;68.78
41078;BME280;26823;42.662;23.352;2022-12-18T14:02:16;96113.31;;;4.50;68.98
41078;BME280;26823;42.662;23.352;2022-12-18T14:04:45;96116.59;;;4.38;68.78
41078;BME280;26823;42.662;23.352;2022-12-18T14:07:13;96115.78;;;4.31;69.40
41078;BME280;26823;42.662;23.352;2022-12-18T14:09:42;96122.59;;;4.27;69.90
41078;BME280;26823;42.662;23.352;2022-12-18T14:12:16;96113.50;;;4.28;69.50
41078;BME280;26823;42.662;23.352;2022-12-18T14:15:00;96059.34;;;3.92;69.04
41078;BME280;26823;42.662;23.352;2022-12-18T14:17:27;96116.59;;;4.32;68.78
41078;BME280;26823;42.662;23.352;2022-12-18T14:19:52;96119.91;;;4.34;69.08
41078;BME280;26823;42.662;23.352;2022-12-18T14:22:25;96136.19;;;4.32;68.76
41078;BME280;26823;42.662;23.352;2022-12-18T14:25:27;96125.25;;;4.34;67.83
41078;BME280;26823;42.662;23.352;2022-12-18T14:28:08;96131.03;;;4.44;67.87
41078;BME280;26823;42.662;23.352;2022-12-18T14:30:39;96131.84;;;4.51;68.61
41078;BME280;26823;42.662;23.352;2022-12-18T14:35:36;96090.03;;;4.30;66.66
41078;BME280;26823;42.662;23.352;2022-12-18T14:38:19;96128.75;;;4.48;67.00
41078;BME280;26823;42.662;23.352;2022-12-18T14:40:46;96122.16;;;4.44;66.52
41078;BME280;26823;42.662;23.352;2022-12-18T14:43:12;96131.03;;;4.44;65.82
41078;BME280;26823;42.662;23.352;2022-12-18T14:45:44;96124.84;;;4.44;65.05
41078;BME280;26823;42.662;23.352;2022-12-18T14:50:37;96116.59;;;4.38;65.09
41078;BME280;26823;42.662;23.352;2022-12-18T14:53:03;96125.47;;;4.52;66.02